sensor_id;sensor_type;location;lat;lon;timestamp;temperature;humidity
18805;DHT22;9530;48.930;9.526;2023-03-23T00:00:09;10.30;99.90
18805;DHT22;9530;48.930;9.526;2023-03-23T00:02:38;10.30;99.90
18805;DHT22;9530;48.930;9.526;2023-03-23T00:05:06;10.40;99.90
18805;DHT22;9530;48.930;9.526;2023-03-23T00:07:34;10.40;99.90
18805;DHT22;9530;48.930;9.526;2023-03-23T00:10:02;10.40;99.90
18805;DHT22;9530;48.930;9.526;2023-03-23T00:12:30;10.40;99.90
18805;DHT22;9530;48.930;9.526;2023-03-23T00:14:59;10.50;99.90
18805;DHT22;9530;48.930;9.526;2023-03-23T00:17:26;10.50;99.90
18805;DHT22;9530;48.930;9.526;2023-03-23T00:19:55;10.40;99.90
18805;DHT22;9530;48.930;9.526;2023-03-23T00:22:23;10.50;99.90
18805;DHT22;9530;48.930;9.526;2023-03-23T00:24:51;10.50;99.90
18805;DHT22;9530;48.930;9.526;2023-03-23T00:27:18;10.50;99.90
18805;DHT22;9530;48.930;9.526;2023-03-23T00:29:47;10.50;99.90
18805;DHT22;9530;48.930;9.526;2023-03-23T00:32:14;10.50;99.90
18805;DHT22;9530;48.930;9.526;2023-03-23T00:34:41;10.50;99.90
18805;DHT22;9530;48.930;9.526;2023-03-23T00:37:12;10.60;99.90
18805;DHT22;9530;48.930;9.526;2023-03-23T00:39:42;10.60;99.90
18805;DHT22;9530;48.930;9.526;2023-03-23T00:42:12;10.70;99.90
18805;DHT22;9530;48.930;9.526;2023-03-23T00:44:39;10.80;99.90
18805;DHT22;9530;48.930;9.526;2023-03-23T00:47:06;10.90;99.90
18805;DHT22;9530;48.930;9.526;2023-03-23T00:49:34;11.00;99.90
18805;DHT22;9530;48.930;9.526;2023-03-23T00:52:02;11.00;99.90
18805;DHT22;9530;48.930;9.526;2023-03-23T00:54:30;11.10;99.90
18805;DHT22;9530;48.930;9.526;2023-03-23T00:56:57;11.20;99.90
18805;DHT22;9530;48.930;9.526;2023-03-23T00:59:23;11.30;99.90
18805;DHT22;9530;48.930;9.526;2023-03-23T01:01:50;11.40;99.90
18805;DHT22;9530;48.930;9.526;2023-03-23T01:04:17;11.40;99.90
18805;DHT22;9530;48.930;9.526;2023-03-23T01:06:49;11.50;99.90
18805;DHT22;9530;48.930;9.526;2023-03-23T01:09:16;11.60;99.90
18805;DHT22;9530;48.930;9.526;2023-03-23T01:11:46;11.70;99.90
18805;DHT22;9530;48.930;9.526;2023-03-23T01:14:15;11.70;99.90
18805;DHT22;9530;48.930;9.526;2023-03-23T01:16:42;11.60;99.90
18805;DHT22;9530;48.930;9.526;2023-03-23T01:19:09;11.60;99.90
18805;DHT22;9530;48.930;9.526;2023-03-23T01:21:36;11.70;99.90
18805;DHT22;9530;48.930;9.526;2023-03-23T01:24:03;11.70;99.90
18805;DHT22;9530;48.930;9.526;2023-03-23T01:26:30;11.70;99.90
18805;DHT22;9530;48.930;9.526;2023-03-23T01:28:58;11.70;99.90
18805;DHT22;9530;48.930;9.526;2023-03-23T01:31:25;11.80;99.90
18805;DHT22;9530;48.930;9.526;2023-03-23T01:33:53;11.90;99.90
18805;DHT22;9530;48.930;9.526;2023-03-23T01:36:22;11.90;99.90
18805;DHT22;9530;48.930;9.526;2023-03-23T01:38:50;11.90;99.90
18805;DHT22;9530;48.930;9.526;2023-03-23T01:41:18;11.90;99.90
18805;DHT22;9530;48.930;9.526;2023-03-23T01:44:01;11.90;99.90
18805;DHT22;9530;48.930;9.526;2023-03-23T01:46:30;11.90;99.90
18805;DHT22;9530;48.930;9.526;2023-03-23T01:49:00;11.90;99.90
18805;DHT22;9530;48.930;9.526;2023-03-23T01:51:33;12.00;99.90
18805;DHT22;9530;48.930;9.526;2023-03-23T01:54:03;12.00;99.90
18805;DHT22;9530;48.930;9.526;2023-03-23T01:56:36;12.00;99.90
18805;DHT22;9530;48.930;9.526;2023-03-23T01:59:07;12.00;99.90
18805;DHT22;9530;48.930;9.526;2023-03-23T02:01:36;12.10;99.90
18805;DHT22;9530;48.930;9.526;2023-03-23T02:04:05;12.10;99.90
18805;DHT22;9530;48.930;9.526;2023-03-23T02:06:39;12.10;99.90
18805;DHT22;9530;48.930;9.526;2023-03-23T02:09:06;12.10;99.90
18805;DHT22;9530;48.930;9.526;2023-03-23T02:11:33;12.20;99.90
18805;DHT22;9530;48.930;9.526;2023-03-23T02:14:00;12.30;99.90
18805;DHT22;9530;48.930;9.526;2023-03-23T02:16:34;12.30;99.90
18805;DHT22;9530;48.930;9.526;2023-03-23T02:19:21;12.30;99.90
18805;DHT22;9530;48.930;9.526;2023-03-23T02:22:17;12.30;99.90
18805;DHT22;9530;48.930;9.526;2023-03-23T02:24:56;12.40;99.90
18805;DHT22;9530;48.930;9.526;2023-03-23T02:27:56;12.50;99.90
18805;DHT22;9530;48.930;9.526;2023-03-23T02:30:43;12.50;99.90
18805;DHT22;9530;48.930;9.526;2023-03-23T02:33:29;12.40;99.90
18805;DHT22;9530;48.930;9.526;2023-03-23T02:35:58;12.30;99.90
18805;DHT22;9530;48.930;9.526;2023-03-23T02:38:31;12.30;99.90
18805;DHT22;9530;48.930;9.526;2023-03-23T02:41:01;12.20;99.90
18805;DHT22;9530;48.930;9.526;2023-03-23T02:43:33;12.30;99.90
18805;DHT22;9530;48.930;9.526;2023-03-23T02:46:01;12.30;99.90
18805;DHT22;9530;48.930;9.526;2023-03-23T02:48:33;12.40;99.90
18805;DHT22;9530;48.930;9.526;2023-03-23T02:51:01;12.40;99.90
18805;DHT22;9530;48.930;9.526;2023-03-23T02:53:29;12.30;99.90
18805;DHT22;9530;48.930;9.526;2023-03-23T02:55:57;12.40;99.90
18805;DHT22;9530;48.930;9.526;2023-03-23T02:58:27;12.50;99.90
18805;DHT22;9530;48.930;9.526;2023-03-23T03:00:54;12.70;99.90
18805;DHT22;9530;48.930;9.526;2023-03-23T03:03:23;12.90;99.90
18805;DHT22;9530;48.930;9.526;2023-03-23T03:06:00;13.10;99.90
18805;DHT22;9530;48.930;9.526;2023-03-23T03:08:31;13.20;99.90
18805;DHT22;9530;48.930;9.526;2023-03-23T03:11:03;13.20;99.90
18805;DHT22;9530;48.930;9.526;2023-03-23T03:13:35;13.20;99.90
18805;DHT22;9530;48.930;9.526;2023-03-23T03:16:07;13.20;99.90
18805;DHT22;9530;48.930;9.526;2023-03-23T03:18:39;13.10;99.90
18805;DHT22;9530;48.930;9.526;2023-03-23T03:21:12;13.10;99.90
18805;DHT22;9530;48.930;9.526;2023-03-23T03:23:40;13.10;99.90
18805;DHT22;9530;48.930;9.526;2023-03-23T03:26:10;13.00;99.90
18805;DHT22;9530;48.930;9.526;2023-03-23T03:28:43;12.90;99.90
18805;DHT22;9530;48.930;9.526;2023-03-23T03:31:14;12.80;99.90
18805;DHT22;9530;48.930;9.526;2023-03-23T03:33:41;12.80;99.90
18805;DHT22;9530;48.930;9.526;2023-03-23T03:36:17;12.80;99.90
18805;DHT22;9530;48.930;9.526;2023-03-23T03:38:46;12.80;99.90
18805;DHT22;9530;48.930;9.526;2023-03-23T03:41:14;12.80;99.90
18805;DHT22;9530;48.930;9.526;2023-03-23T03:43:41;12.90;99.90
18805;DHT22;9530;48.930;9.526;2023-03-23T03:46:08;12.90;99.90
18805;DHT22;9530;48.930;9.526;2023-03-23T03:48:35;12.90;99.90
18805;DHT22;9530;48.930;9.526;2023-03-23T03:51:01;12.90;99.90
18805;DHT22;9530;48.930;9.526;2023-03-23T03:53:29;12.90;99.90
18805;DHT22;9530;48.930;9.526;2023-03-23T03:55:57;12.90;99.90
18805;DHT22;9530;48.930;9.526;2023-03-23T03:58:25;12.90;99.90
18805;DHT22;9530;48.930;9.526;2023-03-23T04:00:57;12.90;99.90
18805;DHT22;9530;48.930;9.526;2023-03-23T04:03:24;12.90;99.90
18805;DHT22;9530;48.930;9.526;2023-03-23T04:05:52;13.00;99.90
18805;DHT22;9530;48.930;9.526;2023-03-23T04:08:20;13.00;99.90
18805;DHT22;9530;48.930;9.526;2023-03-23T04:10:48;13.00;99.90
18805;DHT22;9530;48.930;9.526;2023-03-23T04:13:15;13.10;99.90
18805;DHT22;9530;48.930;9.526;2023-03-23T04:15:43;13.10;99.90
18805;DHT22;9530;48.930;9.526;2023-03-23T04:18:10;13.20;99.90
18805;DHT22;9530;48.930;9.526;2023-03-23T04:20:37;13.30;99.90
18805;DHT22;9530;48.930;9.526;2023-03-23T04:23:05;13.30;99.90
18805;DHT22;9530;48.930;9.526;2023-03-23T04:25:31;13.40;99.90
18805;DHT22;9530;48.930;9.526;2023-03-23T04:27:59;13.30;99.90
18805;DHT22;9530;48.930;9.526;2023-03-23T04:30:27;13.20;99.90
18805;DHT22;9530;48.930;9.526;2023-03-23T04:32:55;13.30;99.90
18805;DHT22;9530;48.930;9.526;2023-03-23T04:35:23;13.30;99.90
18805;DHT22;9530;48.930;9.526;2023-03-23T04:37:51;13.30;99.90
18805;DHT22;9530;48.930;9.526;2023-03-23T04:40:19;13.30;99.90
18805;DHT22;9530;48.930;9.526;2023-03-23T04:42:46;13.30;99.90
18805;DHT22;9530;48.930;9.526;2023-03-23T04:45:17;13.30;99.90
18805;DHT22;9530;48.930;9.526;2023-03-23T04:47:47;13.30;99.90
18805;DHT22;9530;48.930;9.526;2023-03-23T04:50:19;13.40;99.90
18805;DHT22;9530;48.930;9.526;2023-03-23T04:52:46;13.40;99.90
18805;DHT22;9530;48.930;9.526;2023-03-23T04:55:13;13.30;99.90
18805;DHT22;9530;48.930;9.526;2023-03-23T04:57:40;13.30;99.90
18805;DHT22;9530;48.930;9.526;2023-03-23T05:00:08;13.30;99.90
18805;DHT22;9530;48.930;9.526;2023-03-23T05:02:44;13.40;99.90
18805;DHT22;9530;48.930;9.526;2023-03-23T05:05:13;13.30;99.90
18805;DHT22;9530;48.930;9.526;2023-03-23T05:07:40;13.30;99.90
18805;DHT22;9530;48.930;9.526;2023-03-23T05:10:09;13.50;99.90
18805;DHT22;9530;48.930;9.526;2023-03-23T05:12:37;13.60;99.90
18805;DHT22;9530;48.930;9.526;2023-03-23T05:15:04;13.60;99.90
18805;DHT22;9530;48.930;9.526;2023-03-23T05:17:32;13.60;99.90
18805;DHT22;9530;48.930;9.526;2023-03-23T05:20:00;13.60;99.90
18805;DHT22;9530;48.930;9.526;2023-03-23T05:22:31;13.60;99.90
18805;DHT22;9530;48.930;9.526;2023-03-23T05:24:58;13.40;99.90
18805;DHT22;9530;48.930;9.526;2023-03-23T05:27:24;13.40;99.90
18805;DHT22;9530;48.930;9.526;2023-03-23T05:29:53;13.30;99.90
18805;DHT22;9530;48.930;9.526;2023-03-23T05:32:20;13.40;99.90
18805;DHT22;9530;48.930;9.526;2023-03-23T05:34:54;13.40;99.90
18805;DHT22;9530;48.930;9.526;2023-03-23T05:37:22;13.40;99.90
18805;DHT22;9530;48.930;9.526;2023-03-23T05:39:49;13.30;99.90
18805;DHT22;9530;48.930;9.526;2023-03-23T05:42:19;13.20;99.90
18805;DHT22;9530;48.930;9.526;2023-03-23T05:44:46;13.10;99.90
18805;DHT22;9530;48.930;9.526;2023-03-23T05:47:12;13.10;99.90
18805;DHT22;9530;48.930;9.526;2023-03-23T05:49:39;13.10;99.90
18805;DHT22;9530;48.930;9.526;2023-03-23T05:52:06;13.10;99.90
18805;DHT22;9530;48.930;9.526;2023-03-23T05:54:34;13.10;99.90
18805;DHT22;9530;48.930;9.526;2023-03-23T05:57:01;13.20;99.90
18805;DHT22;9530;48.930;9.526;2023-03-23T05:59:28;13.20;99.90
18805;DHT22;9530;48.930;9.526;2023-03-23T06:01:55;13.30;99.90
18805;DHT22;9530;48.930;9.526;2023-03-23T06:04:22;13.30;99.90
18805;DHT22;9530;48.930;9.526;2023-03-23T06:06:50;13.30;99.90
18805;DHT22;9530;48.930;9.526;2023-03-23T06:09:18;13.30;99.90
18805;DHT22;9530;48.930;9.526;2023-03-23T06:11:46;13.20;99.90
18805;DHT22;9530;48.930;9.526;2023-03-23T06:14:13;13.20;99.90
18805;DHT22;9530;48.930;9.526;2023-03-23T06:16:39;13.10;99.90
18805;DHT22;9530;48.930;9.526;2023-03-23T06:19:06;13.10;99.90
18805;DHT22;9530;48.930;9.526;2023-03-23T06:21:33;13.00;99.90
18805;DHT22;9530;48.930;9.526;2023-03-23T06:24:00;13.00;99.90
18805;DHT22;9530;48.930;9.526;2023-03-23T06:26:30;13.00;99.90
18805;DHT22;9530;48.930;9.526;2023-03-23T06:28:58;12.90;99.90
18805;DHT22;9530;48.930;9.526;2023-03-23T06:31:26;12.90;99.90
18805;DHT22;9530;48.930;9.526;2023-03-23T06:33:54;12.80;99.90
18805;DHT22;9530;48.930;9.526;2023-03-23T06:36:20;12.80;99.90
18805;DHT22;9530;48.930;9.526;2023-03-23T06:38:48;12.80;99.90
18805;DHT22;9530;48.930;9.526;2023-03-23T06:41:14;12.80;99.90
18805;DHT22;9530;48.930;9.526;2023-03-23T06:43:41;12.80;99.90
18805;DHT22;9530;48.930;9.526;2023-03-23T06:46:10;12.70;99.90
18805;DHT22;9530;48.930;9.526;2023-03-23T06:48:37;12.80;99.90
18805;DHT22;9530;48.930;9.526;2023-03-23T06:51:04;12.80;99.90
18805;DHT22;9530;48.930;9.526;2023-03-23T06:53:31;12.80;99.90
18805;DHT22;9530;48.930;9.526;2023-03-23T06:55:58;12.80;99.90
18805;DHT22;9530;48.930;9.526;2023-03-23T06:58:24;12.90;99.90
18805;DHT22;9530;48.930;9.526;2023-03-23T07:00:53;12.90;99.90
18805;DHT22;9530;48.930;9.526;2023-03-23T07:03:23;13.20;99.90
18805;DHT22;9530;48.930;9.526;2023-03-23T07:05:51;13.30;99.90
18805;DHT22;9530;48.930;9.526;2023-03-23T07:08:17;13.60;99.90
18805;DHT22;9530;48.930;9.526;2023-03-23T07:10:44;13.90;99.90
18805;DHT22;9530;48.930;9.526;2023-03-23T07:13:11;14.20;99.90
18805;DHT22;9530;48.930;9.526;2023-03-23T07:15:38;14.30;99.90
18805;DHT22;9530;48.930;9.526;2023-03-23T07:18:05;14.60;99.90
18805;DHT22;9530;48.930;9.526;2023-03-23T07:20:33;14.60;99.90
18805;DHT22;9530;48.930;9.526;2023-03-23T07:23:00;14.60;99.90
18805;DHT22;9530;48.930;9.526;2023-03-23T07:25:27;14.60;99.90
18805;DHT22;9530;48.930;9.526;2023-03-23T07:27:54;14.50;99.90
18805;DHT22;9530;48.930;9.526;2023-03-23T07:30:21;14.60;99.90
18805;DHT22;9530;48.930;9.526;2023-03-23T07:32:48;14.60;99.90
18805;DHT22;9530;48.930;9.526;2023-03-23T07:35:15;14.50;99.90
18805;DHT22;9530;48.930;9.526;2023-03-23T07:37:43;14.40;99.90
18805;DHT22;9530;48.930;9.526;2023-03-23T07:40:11;14.60;99.90
18805;DHT22;9530;48.930;9.526;2023-03-23T07:42:41;14.40;99.90
18805;DHT22;9530;48.930;9.526;2023-03-23T07:45:09;14.40;99.90
18805;DHT22;9530;48.930;9.526;2023-03-23T07:47:36;14.30;99.90
18805;DHT22;9530;48.930;9.526;2023-03-23T07:50:05;14.30;99.90
18805;DHT22;9530;48.930;9.526;2023-03-23T07:52:32;14.30;99.90
18805;DHT22;9530;48.930;9.526;2023-03-23T07:55:00;14.40;99.90
18805;DHT22;9530;48.930;9.526;2023-03-23T07:57:28;14.50;99.90
18805;DHT22;9530;48.930;9.526;2023-03-23T07:59:54;14.50;99.90
18805;DHT22;9530;48.930;9.526;2023-03-23T08:02:22;14.60;99.90
18805;DHT22;9530;48.930;9.526;2023-03-23T08:04:49;14.60;99.90
18805;DHT22;9530;48.930;9.526;2023-03-23T08:07:16;14.70;99.90
18805;DHT22;9530;48.930;9.526;2023-03-23T08:09:44;15.00;99.90
18805;DHT22;9530;48.930;9.526;2023-03-23T08:12:13;15.30;99.90
18805;DHT22;9530;48.930;9.526;2023-03-23T08:14:40;15.50;99.90
18805;DHT22;9530;48.930;9.526;2023-03-23T08:17:07;15.70;99.90
18805;DHT22;9530;48.930;9.526;2023-03-23T08:19:34;15.90;99.90
18805;DHT22;9530;48.930;9.526;2023-03-23T08:22:03;16.20;99.90
18805;DHT22;9530;48.930;9.526;2023-03-23T08:24:30;16.40;99.90
18805;DHT22;9530;48.930;9.526;2023-03-23T08:26:56;16.50;99.90
18805;DHT22;9530;48.930;9.526;2023-03-23T08:29:25;16.50;99.90
18805;DHT22;9530;48.930;9.526;2023-03-23T08:31:51;16.50;99.90
18805;DHT22;9530;48.930;9.526;2023-03-23T08:34:18;16.60;99.90
18805;DHT22;9530;48.930;9.526;2023-03-23T08:36:45;16.60;99.90
18805;DHT22;9530;48.930;9.526;2023-03-23T08:39:12;16.60;99.90
18805;DHT22;9530;48.930;9.526;2023-03-23T08:41:39;16.70;99.90
18805;DHT22;9530;48.930;9.526;2023-03-23T08:44:06;16.80;99.90
18805;DHT22;9530;48.930;9.526;2023-03-23T08:46:35;16.70;99.90
18805;DHT22;9530;48.930;9.526;2023-03-23T08:49:01;16.80;99.90
18805;DHT22;9530;48.930;9.526;2023-03-23T08:51:28;16.70;99.90
18805;DHT22;9530;48.930;9.526;2023-03-23T08:53:55;16.70;99.90
18805;DHT22;9530;48.930;9.526;2023-03-23T08:56:21;16.70;99.90
18805;DHT22;9530;48.930;9.526;2023-03-23T08:58:48;16.70;99.90
18805;DHT22;9530;48.930;9.526;2023-03-23T09:01:15;16.60;99.90
18805;DHT22;9530;48.930;9.526;2023-03-23T09:03:43;16.50;99.90
18805;DHT22;9530;48.930;9.526;2023-03-23T09:06:10;16.30;99.90
18805;DHT22;9530;48.930;9.526;2023-03-23T09:08:38;16.10;99.90
18805;DHT22;9530;48.930;9.526;2023-03-23T09:11:07;15.90;99.90
18805;DHT22;9530;48.930;9.526;2023-03-23T09:13:34;15.80;99.90
18805;DHT22;9530;48.930;9.526;2023-03-23T09:16:02;15.70;99.90
18805;DHT22;9530;48.930;9.526;2023-03-23T09:18:29;15.60;99.90
18805;DHT22;9530;48.930;9.526;2023-03-23T09:20:58;15.50;99.90
18805;DHT22;9530;48.930;9.526;2023-03-23T09:23:25;15.50;99.90
18805;DHT22;9530;48.930;9.526;2023-03-23T09:25:52;15.40;99.90
18805;DHT22;9530;48.930;9.526;2023-03-23T09:28:19;15.30;99.90
18805;DHT22;9530;48.930;9.526;2023-03-23T09:30:46;15.30;99.90
18805;DHT22;9530;48.930;9.526;2023-03-23T09:33:13;15.30;99.90
18805;DHT22;9530;48.930;9.526;2023-03-23T09:35:40;15.30;99.90
18805;DHT22;9530;48.930;9.526;2023-03-23T09:38:10;15.30;99.90
18805;DHT22;9530;48.930;9.526;2023-03-23T09:40:42;15.40;99.90
18805;DHT22;9530;48.930;9.526;2023-03-23T09:43:35;15.40;99.90
18805;DHT22;9530;48.930;9.526;2023-03-23T09:46:18;15.40;99.90
18805;DHT22;9530;48.930;9.526;2023-03-23T09:48:50;15.50;99.90
18805;DHT22;9530;48.930;9.526;2023-03-23T09:51:28;15.50;99.90
18805;DHT22;9530;48.930;9.526;2023-03-23T09:54:03;15.50;99.90
18805;DHT22;9530;48.930;9.526;2023-03-23T09:56:33;15.60;99.90
18805;DHT22;9530;48.930;9.526;2023-03-23T09:59:08;15.50;99.90
18805;DHT22;9530;48.930;9.526;2023-03-23T10:01:40;15.60;99.90
18805;DHT22;9530;48.930;9.526;2023-03-23T10:04:14;15.60;99.90
18805;DHT22;9530;48.930;9.526;2023-03-23T10:06:42;15.70;99.90
18805;DHT22;9530;48.930;9.526;2023-03-23T10:09:14;15.70;99.90
18805;DHT22;9530;48.930;9.526;2023-03-23T10:11:49;15.80;99.90
18805;DHT22;9530;48.930;9.526;2023-03-23T10:14:27;15.90;99.90
18805;DHT22;9530;48.930;9.526;2023-03-23T10:17:03;16.00;99.90
18805;DHT22;9530;48.930;9.526;2023-03-23T10:19:38;16.10;99.90
18805;DHT22;9530;48.930;9.526;2023-03-23T10:22:10;16.20;99.90
18805;DHT22;9530;48.930;9.526;2023-03-23T10:24:42;16.30;99.90
18805;DHT22;9530;48.930;9.526;2023-03-23T10:27:19;16.30;99.90
18805;DHT22;9530;48.930;9.526;2023-03-23T10:29:50;16.30;99.90
18805;DHT22;9530;48.930;9.526;2023-03-23T10:32:21;16.30;99.90
18805;DHT22;9530;48.930;9.526;2023-03-23T10:34:53;16.20;99.90
18805;DHT22;9530;48.930;9.526;2023-03-23T10:37:24;16.20;99.90
18805;DHT22;9530;48.930;9.526;2023-03-23T10:39:55;16.10;99.90
18805;DHT22;9530;48.930;9.526;2023-03-23T10:42:24;16.00;99.90
18805;DHT22;9530;48.930;9.526;2023-03-23T10:44:51;16.10;99.90
18805;DHT22;9530;48.930;9.526;2023-03-23T10:47:18;16.20;99.90
18805;DHT22;9530;48.930;9.526;2023-03-23T10:49:48;16.50;99.90
18805;DHT22;9530;48.930;9.526;2023-03-23T10:52:27;16.80;99.90
18805;DHT22;9530;48.930;9.526;2023-03-23T10:54:58;17.10;99.90
18805;DHT22;9530;48.930;9.526;2023-03-23T10:57:29;17.40;99.90
18805;DHT22;9530;48.930;9.526;2023-03-23T11:00:00;17.60;99.90
18805;DHT22;9530;48.930;9.526;2023-03-23T11:02:32;17.80;99.90
18805;DHT22;9530;48.930;9.526;2023-03-23T11:05:04;18.20;99.90
18805;DHT22;9530;48.930;9.526;2023-03-23T11:07:34;18.20;99.90
18805;DHT22;9530;48.930;9.526;2023-03-23T11:10:26;17.90;99.90
18805;DHT22;9530;48.930;9.526;2023-03-23T11:12:57;17.60;99.90
18805;DHT22;9530;48.930;9.526;2023-03-23T11:15:29;17.50;99.90
18805;DHT22;9530;48.930;9.526;2023-03-23T11:17:58;17.60;99.90
18805;DHT22;9530;48.930;9.526;2023-03-23T11:20:26;17.70;99.90
18805;DHT22;9530;48.930;9.526;2023-03-23T11:22:54;17.80;99.90
18805;DHT22;9530;48.930;9.526;2023-03-23T11:25:22;17.90;99.90
18805;DHT22;9530;48.930;9.526;2023-03-23T11:27:50;18.00;99.90
18805;DHT22;9530;48.930;9.526;2023-03-23T11:30:23;17.80;99.90
18805;DHT22;9530;48.930;9.526;2023-03-23T11:32:51;17.60;99.90
18805;DHT22;9530;48.930;9.526;2023-03-23T11:35:20;17.40;99.90
18805;DHT22;9530;48.930;9.526;2023-03-23T11:37:50;17.20;99.90
18805;DHT22;9530;48.930;9.526;2023-03-23T11:40:20;17.00;99.90
18805;DHT22;9530;48.930;9.526;2023-03-23T11:42:49;16.90;99.90
18805;DHT22;9530;48.930;9.526;2023-03-23T11:45:30;16.80;99.90
18805;DHT22;9530;48.930;9.526;2023-03-23T11:48:06;16.70;99.90
18805;DHT22;9530;48.930;9.526;2023-03-23T11:50:43;16.90;99.90
18805;DHT22;9530;48.930;9.526;2023-03-23T11:53:15;16.90;99.90
18805;DHT22;9530;48.930;9.526;2023-03-23T11:55:53;16.90;99.90
18805;DHT22;9530;48.930;9.526;2023-03-23T11:58:23;17.10;99.90
18805;DHT22;9530;48.930;9.526;2023-03-23T12:00:55;17.20;99.90
18805;DHT22;9530;48.930;9.526;2023-03-23T12:03:34;17.30;99.90
18805;DHT22;9530;48.930;9.526;2023-03-23T12:06:07;17.30;99.90
18805;DHT22;9530;48.930;9.526;2023-03-23T12:08:51;17.10;99.90
18805;DHT22;9530;48.930;9.526;2023-03-23T12:11:26;17.00;99.90
18805;DHT22;9530;48.930;9.526;2023-03-23T12:14:04;16.90;99.90
18805;DHT22;9530;48.930;9.526;2023-03-23T12:16:45;16.90;99.90
18805;DHT22;9530;48.930;9.526;2023-03-23T12:19:24;16.90;99.90
18805;DHT22;9530;48.930;9.526;2023-03-23T12:21:57;17.00;99.90
18805;DHT22;9530;48.930;9.526;2023-03-23T12:24:36;17.00;99.90
18805;DHT22;9530;48.930;9.526;2023-03-23T12:27:12;16.90;99.90
18805;DHT22;9530;48.930;9.526;2023-03-23T12:29:53;16.90;99.90
18805;DHT22;9530;48.930;9.526;2023-03-23T12:32:44;16.90;99.90
18805;DHT22;9530;48.930;9.526;2023-03-23T12:35:25;16.90;99.90
18805;DHT22;9530;48.930;9.526;2023-03-23T12:38:04;17.00;99.90
18805;DHT22;9530;48.930;9.526;2023-03-23T12:40:43;17.10;99.90
18805;DHT22;9530;48.930;9.526;2023-03-23T12:43:18;17.00;99.90
18805;DHT22;9530;48.930;9.526;2023-03-23T12:45:56;17.00;99.90
18805;DHT22;9530;48.930;9.526;2023-03-23T12:48:28;16.90;99.90
18805;DHT22;9530;48.930;9.526;2023-03-23T12:51:12;17.00;99.90
18805;DHT22;9530;48.930;9.526;2023-03-23T12:53:44;17.30;99.90
18805;DHT22;9530;48.930;9.526;2023-03-23T12:56:17;17.30;99.90
18805;DHT22;9530;48.930;9.526;2023-03-23T12:58:45;17.30;99.90
18805;DHT22;9530;48.930;9.526;2023-03-23T13:01:17;17.50;99.90
18805;DHT22;9530;48.930;9.526;2023-03-23T13:03:50;17.50;99.90
18805;DHT22;9530;48.930;9.526;2023-03-23T13:06:22;17.40;99.90
18805;DHT22;9530;48.930;9.526;2023-03-23T13:08:55;17.00;99.90
18805;DHT22;9530;48.930;9.526;2023-03-23T13:11:32;16.80;99.90
18805;DHT22;9530;48.930;9.526;2023-03-23T13:14:08;16.90;99.90
18805;DHT22;9530;48.930;9.526;2023-03-23T13:16:44;16.90;99.90
18805;DHT22;9530;48.930;9.526;2023-03-23T13:19:19;16.70;99.90
18805;DHT22;9530;48.930;9.526;2023-03-23T13:21:53;16.80;99.90
18805;DHT22;9530;48.930;9.526;2023-03-23T13:24:24;16.80;99.90
18805;DHT22;9530;48.930;9.526;2023-03-23T13:26:53;16.90;99.90
18805;DHT22;9530;48.930;9.526;2023-03-23T13:29:23;16.90;99.90
18805;DHT22;9530;48.930;9.526;2023-03-23T13:32:06;17.00;99.90
18805;DHT22;9530;48.930;9.526;2023-03-23T13:34:35;16.80;99.90
18805;DHT22;9530;48.930;9.526;2023-03-23T13:37:04;16.90;99.90
18805;DHT22;9530;48.930;9.526;2023-03-23T13:39:34;16.80;99.90
18805;DHT22;9530;48.930;9.526;2023-03-23T13:42:18;16.90;99.90
18805;DHT22;9530;48.930;9.526;2023-03-23T13:45:05;16.90;99.90
18805;DHT22;9530;48.930;9.526;2023-03-23T13:47:38;16.90;99.90
18805;DHT22;9530;48.930;9.526;2023-03-23T13:50:12;16.70;99.90
18805;DHT22;9530;48.930;9.526;2023-03-23T13:52:49;16.60;99.90
18805;DHT22;9530;48.930;9.526;2023-03-23T13:55:21;16.60;99.90
18805;DHT22;9530;48.930;9.526;2023-03-23T13:57:52;16.60;99.90
18805;DHT22;9530;48.930;9.526;2023-03-23T14:00:44;16.70;99.90
18805;DHT22;9530;48.930;9.526;2023-03-23T14:03:16;16.60;99.90
18805;DHT22;9530;48.930;9.526;2023-03-23T14:05:45;16.60;99.90
18805;DHT22;9530;48.930;9.526;2023-03-23T14:08:21;16.50;99.90
18805;DHT22;9530;48.930;9.526;2023-03-23T14:10:52;16.40;99.90
18805;DHT22;9530;48.930;9.526;2023-03-23T14:13:24;16.20;99.90
18805;DHT22;9530;48.930;9.526;2023-03-23T14:15:57;16.10;99.90
18805;DHT22;9530;48.930;9.526;2023-03-23T14:18:31;16.10;99.90
18805;DHT22;9530;48.930;9.526;2023-03-23T14:20:59;16.10;99.90
18805;DHT22;9530;48.930;9.526;2023-03-23T14:23:26;16.20;99.90
18805;DHT22;9530;48.930;9.526;2023-03-23T14:25:58;16.30;99.90
18805;DHT22;9530;48.930;9.526;2023-03-23T14:28:31;16.50;99.90
18805;DHT22;9530;48.930;9.526;2023-03-23T14:30:59;16.50;99.90
18805;DHT22;9530;48.930;9.526;2023-03-23T14:33:27;16.70;99.90
18805;DHT22;9530;48.930;9.526;2023-03-23T14:35:57;16.70;99.90
18805;DHT22;9530;48.930;9.526;2023-03-23T14:38:25;16.70;99.90
18805;DHT22;9530;48.930;9.526;2023-03-23T14:41:00;16.70;99.90
18805;DHT22;9530;48.930;9.526;2023-03-23T14:43:27;16.70;99.90
18805;DHT22;9530;48.930;9.526;2023-03-23T14:45:55;16.70;99.90
18805;DHT22;9530;48.930;9.526;2023-03-23T14:48:22;16.60;99.90
18805;DHT22;9530;48.930;9.526;2023-03-23T14:50:52;16.50;99.90
18805;DHT22;9530;48.930;9.526;2023-03-23T14:53:23;16.50;99.90
18805;DHT22;9530;48.930;9.526;2023-03-23T14:55:52;16.30;99.90
18805;DHT22;9530;48.930;9.526;2023-03-23T14:58:21;16.40;99.90
18805;DHT22;9530;48.930;9.526;2023-03-23T15:00:53;16.50;99.90
18805;DHT22;9530;48.930;9.526;2023-03-23T15:03:22;16.50;99.90
18805;DHT22;9530;48.930;9.526;2023-03-23T15:05:52;16.50;99.90
18805;DHT22;9530;48.930;9.526;2023-03-23T15:08:24;16.20;99.90
18805;DHT22;9530;48.930;9.526;2023-03-23T15:11:01;16.00;99.90
18805;DHT22;9530;48.930;9.526;2023-03-23T15:13:29;16.00;99.90
18805;DHT22;9530;48.930;9.526;2023-03-23T15:16:05;16.00;99.90
18805;DHT22;9530;48.930;9.526;2023-03-23T15:18:35;15.90;99.90
18805;DHT22;9530;48.930;9.526;2023-03-23T15:21:18;15.90;99.90
18805;DHT22;9530;48.930;9.526;2023-03-23T15:23:45;15.90;99.90
18805;DHT22;9530;48.930;9.526;2023-03-23T15:26:25;15.70;99.90
18805;DHT22;9530;48.930;9.526;2023-03-23T15:29:01;15.60;99.90
18805;DHT22;9530;48.930;9.526;2023-03-23T15:31:28;15.70;99.90
18805;DHT22;9530;48.930;9.526;2023-03-23T15:33:58;15.80;99.90
18805;DHT22;9530;48.930;9.526;2023-03-23T15:36:31;15.70;99.90
18805;DHT22;9530;48.930;9.526;2023-03-23T15:39:00;15.60;99.90
18805;DHT22;9530;48.930;9.526;2023-03-23T15:41:29;15.60;99.90
18805;DHT22;9530;48.930;9.526;2023-03-23T15:44:10;15.60;99.90
18805;DHT22;9530;48.930;9.526;2023-03-23T15:46:47;15.50;99.90
18805;DHT22;9530;48.930;9.526;2023-03-23T15:49:15;15.50;99.90
18805;DHT22;9530;48.930;9.526;2023-03-23T15:51:44;15.40;99.90
18805;DHT22;9530;48.930;9.526;2023-03-23T15:54:13;15.30;99.90
18805;DHT22;9530;48.930;9.526;2023-03-23T15:56:41;15.20;99.90
18805;DHT22;9530;48.930;9.526;2023-03-23T15:59:08;15.10;99.90
18805;DHT22;9530;48.930;9.526;2023-03-23T16:01:36;15.00;99.90
18805;DHT22;9530;48.930;9.526;2023-03-23T16:04:06;14.90;99.90